Latest Weather Observations for Mandurah

IDW60901

Issued at 7:01 pm WST Thursday 20 September 2018 (issued every 10 minutes, with the page automatically refreshed every 10 minutes)

About weather observations | Map of Perth area stations | Latest observations for Perth area | Other Formats
Station Details ID: 009977 Name: MANDURAH Lat: -32.52 Lon: 115.71 Height: 3.0 m
Data from the previous 72 hours. | See also: Recent months at Mandurah
Date/Time
WST
Temp
°C
App
Temp
°C
Dew
Point
°C
Rel
Hum
%
Delta-T
°C
Wind Press
QNH
hPa
Press
MSL
hPa
Rain since
9am
mm
Dir  Spd
km/h
Gust
km/h
Spd
kts
Gust
kts
20/07:00pm 17.4 17.2 13.7 79 2.1 SSE 7 11 4 6 1020.5 1020.5 0.0
20/06:30pm 17.7 16.9 13.0 74 2.6 SSW 9 17 5 9 1020.3 1020.3 0.0
20/06:00pm 18.6 18.7 12.6 68 3.3 SW 4 6 2 3 1020.0 1020.0 0.0
20/05:30pm 19.3 18.7 12.3 64 3.9 SSW 7 9 4 5 1019.9 1019.9 0.0
20/05:00pm 18.6 17.0 12.8 69 3.2 SW 13 20 7 11 1019.9 1019.9 0.0
20/04:30pm 19.4 18.3 13.1 67 3.6 SW 11 15 6 8 1019.9 1019.9 0.0
20/04:00pm 19.4 17.8 12.7 65 3.8 SW 13 19 7 10 1019.8 1019.8 0.0
20/03:30pm 20.0 18.6 13.5 66 3.7 SW 13 19 7 10 1019.9 1019.9 0.0
20/03:00pm 20.3 19.5 14.0 67 3.6 WSW 11 15 6 8 1020.2 1020.2 0.0
20/02:30pm 21.1 20.6 13.8 63 4.2 WSW 9 13 5 7 1020.3 1020.3 0.0
20/02:00pm 21.6 21.5 13.2 59 4.8 WSW 6 7 3 4 1020.6 1020.6 0.0
20/01:30pm 21.1 21.0 13.8 63 4.2 WSW 7 11 4 6 1021.0 1021.0 0.0
20/01:00pm 19.9 19.5 12.9 64 3.9 WNW 7 11 4 6 1021.4 1021.4 0.0
20/12:30pm 20.3 19.6 13.3 64 4.0 WNW 9 11 5 6 1021.9 1021.9 0.0
20/12:00pm 19.7 19.0 13.2 66 3.7 WNW 9 9 5 5 1022.3 1022.3 0.0
20/11:30am 19.1 18.3 12.8 67 3.5 WNW 9 11 5 6 1022.7 1022.7 0.0
20/11:00am 17.9 17.3 13.4 75 2.5 WNW 9 13 5 7 1022.9 1022.9 0.0
20/10:30am 17.5 16.6 12.6 73 2.7 NW 9 11 5 6 1023.2 1023.2 0.0
20/10:00am 17.4 17.3 13.3 77 2.3 ESE 6 6 3 3 1023.6 1023.6 0.0
20/09:30am 16.4 16.2 13.1 81 1.8 ESE 6 7 3 4 1023.9 1023.9 0.0
20/09:00am 15.5 15.6 12.8 84 1.5 SE 4 6 2 3 1024.0 1024.0 0.0
20/08:30am 13.9 14.2 12.3 90 0.9 SE 2 4 1 2 1024.2 1024.2 0.0
20/08:00am 12.0 12.2 11.7 98 0.2 SE 2 4 1 2 1024.2 1024.2 0.0
20/07:30am 11.0 10.6 11.0 100 0.0 SE 4 6 2 3 1024.1 1024.1 0.0
20/07:00am 10.1 9.8 10.1 100 0.0 SE 2 4 1 2 1024.0 1024.0 0.0
20/06:30am 9.3 8.4 9.3 100 0.0 SE 4 6 2 3 1023.8 1023.8 0.0
20/06:00am 9.1 8.2 9.1 100 0.0 SE 4 6 2 3 1023.7 1023.7 0.0
20/05:30am 9.3 8.8 9.3 100 0.0 SE 2 4 1 2 1023.6 1023.6 0.0
20/05:00am 10.1 8.8 10.1 100 0.0 SE 7 9 4 5 1023.7 1023.7 0.0
20/04:30am 10.7 9.8 10.7 100 0.0 SE 6 9 3 5 1023.8 1023.8 0.0
20/04:00am 10.7 10.2 10.7 100 0.0 SSE 4 6 2 3 1023.7 1023.7 0.0
20/03:30am 10.9 10.4 10.9 100 0.0 SSE 4 6 2 3 1023.9 1023.9 0.0
20/03:00am 11.2 10.4 11.2 100 0.0 SSE 6 9 3 5 1024.0 1024.0 0.0
20/02:30am 11.1 10.3 11.1 100 0.0 SE 6 7 3 4 1024.0 1024.0 0.0
20/02:00am 11.3 10.4 11.3 100 0.0 SE 7 9 4 5 1024.3 1024.3 0.0
20/01:30am 11.7 10.5 11.5 99 0.1 SE 9 11 5 6 1024.7 1024.7 0.0
20/01:00am 12.0 11.4 11.8 99 0.1 SSE 6 9 3 5 1025.0 1025.0 0.0
20/12:30am 12.2 11.7 12.0 99 0.1 SSE 6 11 3 6 1025.3 1025.3 0.0
20/12:00am 12.2 11.5 12.0 99 0.1 SE 7 9 4 5 1025.5 1025.5 0.0
 
Date/Time
WST
Temp
°C
App
Temp
°C
Dew
Point
°C
Rel
Hum
%
Delta-T
°C
Wind Press
QNH
hPa
Press
MSL
hPa
Rain since
9am
mm
Dir  Spd
km/h
Gust
km/h
Spd
kts
Gust
kts
19/11:30pm 12.4 11.7 12.1 98 0.2 SE 7 9 4 5 1025.8 1025.8 0.0
19/11:00pm 12.5 11.9 12.2 98 0.2 SE 7 9 4 5 1026.0 1026.0 0.0
19/10:30pm 12.5 12.0 12.2 98 0.2 SE 6 7 3 4 1026.3 1026.3 0.0
19/10:00pm 13.3 12.8 12.8 97 0.3 SE 7 9 4 5 1026.4 1026.4 0.0
19/09:30pm 13.8 13.6 12.9 94 0.5 SSE 6 9 3 5 1026.6 1026.6 0.0
19/09:00pm 13.4 13.5 12.8 96 0.3 S 4 6 2 3 1026.7 1026.7 0.0
19/08:30pm 14.0 14.4 12.4 90 0.9 S 2 7 1 4 1026.6 1026.6 0.0
19/08:00pm 14.2 13.7 12.2 88 1.1 S 6 7 3 4 1026.6 1026.6 0.0
19/07:30pm 14.3 13.7 12.2 87 1.1 SSW 7 11 4 6 1026.5 1026.5 0.0
19/07:00pm 14.5 13.7 11.8 84 1.4 SSW 7 13 4 7 1026.3 1026.3 0.0
19/06:30pm 14.8 13.6 11.6 81 1.7 SSW 9 13 5 7 1026.1 1026.1 0.0
19/06:00pm 15.1 13.5 11.5 79 1.9 SSW 11 19 6 10 1026.0 1026.0 0.0
19/05:30pm 15.4 13.7 11.2 76 2.2 SSW 11 17 6 9 1025.8 1025.8 0.0
19/05:00pm 15.7 13.6 11.1 74 2.4 SW 13 20 7 11 1025.8 1025.8 0.0
19/04:30pm 15.6 12.8 11.2 75 2.4 WSW 17 26 9 14 1025.8 1025.8 0.0
19/04:00pm 15.9 12.6 10.9 72 2.6 SW 19 26 10 14 1026.0 1026.0 0.0
19/03:30pm 16.3 13.2 11.5 73 2.6 SW 19 26 10 14 1026.0 1026.0 0.0
19/03:00pm 16.1 12.7 11.1 72 2.7 SW 20 28 11 15 1026.2 1026.2 0.0
19/02:30pm 16.2 13.0 11.2 72 2.7 WSW 19 26 10 14 1026.2 1026.2 0.0
19/02:00pm 16.1 12.9 11.1 72 2.7 WSW 19 26 10 14 1026.6 1026.6 0.0
19/01:30pm 16.4 13.2 11.3 72 2.7 WSW 19 24 10 13 1027.0 1027.0 0.0
19/01:00pm 16.2 13.2 10.5 69 3.0 WSW 17 24 9 13 1027.4 1027.4 0.0
19/12:30pm 16.8 14.8 10.0 64 3.6 SSE 11 15 6 8 1027.9 1027.9 0.0
19/12:00pm 15.9 14.1 9.3 65 3.4 SSE 9 15 5 8 1028.4 1028.4 0.0
19/11:30am 16.3 14.6 9.7 65 3.4 SSE 9 17 5 9 1028.8 1028.8 0.0
19/11:00am 15.7 13.9 9.6 67 3.1 S 9 17 5 9 1029.2 1029.2 0.0
19/10:30am 15.4 13.6 9.3 67 3.1 SE 9 17 5 9 1029.5 1029.5 0.0
19/10:00am 14.6 12.7 9.2 70 2.7 SSE 9 13 5 7 1029.8 1029.8 0.0
19/09:30am 14.3 12.1 9.5 73 2.5 E 11 17 6 9 1030.1 1030.1 0.0
19/09:00am 13.5 11.4 9.6 77 2.0 ESE 11 17 6 9 1030.2 1030.2 0.0
19/08:30am 12.5 9.8 9.0 79 1.8 ESE 13 19 7 10 1030.1 1030.1 0.0
19/08:00am 11.4 9.2 9.3 87 1.0 ESE 11 15 6 8 1029.9 1029.9 0.0
19/07:30am 10.1 8.6 9.2 94 0.4 ESE 7 9 4 5 1029.8 1029.8 0.0
19/07:00am 9.3 8.0 9.2 99 0.0 ESE 6 9 3 5 1029.6 1029.6 0.0
19/06:30am 9.3 7.8 9.2 99 0.0 SE 7 9 4 5 1029.2 1029.2 0.0
19/06:00am 9.5 8.1 9.4 99 0.0 ESE 7 9 4 5 1029.1 1029.1 0.0
19/05:30am 10.4 9.0 9.6 95 0.4 SE 7 9 4 5 1028.9 1028.9 0.0
19/05:00am 10.4 9.2 10.2 99 0.1 SE 7 9 4 5 1028.7 1028.7 0.0
19/04:30am 11.0 9.9 10.5 97 0.3 SE 7 11 4 6 1028.6 1028.6 0.0
19/04:00am 11.6 9.8 10.7 94 0.5 SSE 11 17 6 9 1028.7 1028.7 0.0
19/03:30am 11.9 9.5 10.1 89 0.9 SSE 13 19 7 10 1028.7 1028.7 0.0
19/03:00am 12.3 10.3 10.2 87 1.1 SSE 11 17 6 9 1028.7 1028.7 0.0
19/02:30am 12.3 10.0 10.4 88 1.0 SSE 13 20 7 11 1028.7 1028.7 0.0
19/02:00am 12.3 10.1 10.9 91 0.7 SSE 13 20 7 11 1028.9 1028.9 0.0
19/01:30am 12.6 10.8 11.0 90 0.8 SSE 11 19 6 10 1029.0 1029.0 0.0
19/01:00am 12.4 10.6 11.0 91 0.7 SSE 11 17 6 9 1028.8 1028.8 0.0
19/12:30am 12.7 11.0 11.3 91 0.7 SSE 11 15 6 8 1028.9 1028.9 0.0
19/12:00am 13.3 11.5 12.2 93 0.6 S 13 20 7 11 1029.2 1029.2 0.0
 
Date/Time
WST
Temp
°C
App
Temp
°C
Dew
Point
°C
Rel
Hum
%
Delta-T
°C
Wind Press
QNH
hPa
Press
MSL
hPa
Rain since
9am
mm
Dir  Spd
km/h
Gust
km/h
Spd
kts
Gust
kts
18/11:30pm 13.4 12.1 12.5 94 0.5 S 11 17 6 9 1029.2 1029.2 0.0
18/11:00pm 13.7 12.0 12.6 93 0.6 S 13 24 7 13 1029.4 1029.4 0.0
18/10:30pm 13.7 12.8 12.6 93 0.6 SSW 9 17 5 9 1029.5 1029.5 0.0
18/10:00pm 13.7 12.7 12.4 92 0.7 SSW 9 17 5 9 1029.5 1029.5 0.0
18/09:30pm 13.7 13.1 12.4 92 0.7 SSW 7 13 4 7 1029.5 1029.5 0.0
18/09:00pm 13.8 13.3 12.5 92 0.7 SSW 7 13 4 7 1029.1 1029.1 0.0
18/08:30pm 14.2 13.7 12.6 90 0.9 SSW 7 9 4 5 1029.2 1029.2 0.0
18/08:00pm 14.4 13.2 12.8 90 0.9 SSW 11 19 6 10 1029.6 1029.6 0.0
18/07:30pm 14.6 13.1 13.0 90 0.9 SSW 13 22 7 12 1029.3 1029.3 0.0
18/07:00pm 14.6 13.3 12.6 88 1.1 SSW 11 17 6 9 1028.8 1028.8 0.0
18/06:30pm 14.9 13.6 12.4 85 1.4 SSW 11 17 6 9 1028.4 1028.4 0.0
18/06:00pm 15.3 13.1 12.1 81 1.7 SSW 15 24 8 13 1028.2 1028.2 0.0
18/05:30pm 15.9 14.1 12.1 78 2.1 SSW 13 20 7 11 1027.9 1027.9 0.0
18/05:00pm 16.2 14.4 12.2 77 2.2 SW 13 20 7 11 1027.6 1027.6 0.0
18/04:30pm 16.4 14.3 11.3 72 2.7 SW 13 19 7 10 1027.5 1027.5 0.0
18/04:00pm 16.8 14.7 11.3 70 3.0 SSW 13 19 7 10 1027.6 1027.6 0.0
18/03:30pm 17.7 14.9 11.3 66 3.5 SW 17 26 9 14 1027.7 1027.7 0.0
18/03:00pm 16.8 13.8 12.1 74 2.6 WSW 19 26 10 14 1027.7 1027.7 0.0
18/02:30pm 17.3 14.6 11.6 69 3.1 SW 17 26 9 14 1027.7 1027.7 0.0
18/02:00pm 16.6 13.9 11.7 73 2.6 SW 17 28 9 15 1028.0 1028.0 0.0
18/01:30pm 17.3 14.9 10.0 62 3.9 SSW 13 20 7 11 1028.0 1028.0 0.0
18/01:00pm 17.3 14.7 9.5 60 4.1 S 13 20 7 11 1028.3 1028.3 0.0
18/12:30pm 17.1 14.2 9.5 61 4.0 SSW 15 22 8 12 1028.8 1028.8 0.0
18/12:00pm 17.4 14.7 8.8 57 4.4 S 13 20 7 11 1029.1 1029.1 0.0
18/11:30am 17.2 14.9 9.1 59 4.2 S 11 20 6 11 1029.4 1029.4 0.0
18/11:00am 16.4 14.3 9.8 65 3.4 S 11 17 6 9 1029.5 1029.5 0.0
18/10:30am 15.9 13.8 9.8 67 3.2 SSE 11 19 6 10 1030.0 1030.0 0.0
18/10:00am 15.4 13.7 10.0 70 2.8 SSE 9 15 5 8 1030.1 1030.1 0.0
18/09:30am 14.5 12.1 9.9 74 2.4 SSE 13 19 7 10 1030.2 1030.2 0.0
18/09:00am 14.1 11.9 9.5 74 2.3 SSE 11 17 6 9 1029.9 1029.9 0.2
18/08:30am 12.7 11.8 9.3 80 1.7 SE 4 7 2 4 1029.6 1029.6 0.2
18/08:00am 11.1 9.7 8.7 85 1.2 ESE 6 9 3 5 1029.4 1029.4 0.2
18/07:30am 9.9 8.9 8.8 93 0.5 SE 4 7 2 4 1029.1 1029.1 0.2
18/07:00am 8.8 7.4 8.7 99 0.0 SE 6 6 3 3 1028.7 1028.7 0.2
18/06:30am 8.4 7.3 8.3 99 0.0 SE 4 6 2 3 1028.5 1028.5 0.2
18/06:00am 8.4 7.3 8.3 99 0.0 SSE 4 6 2 3 1028.0 1028.0 0.2
18/05:30am 9.0 8.0 8.9 99 0.0 SSE 4 7 2 4 1027.6 1027.6 0.2
18/05:00am 9.0 7.6 8.9 99 0.0 SE 6 7 3 4 1027.3 1027.3 0.2
18/04:30am 9.2 8.3 9.2 100 0.0 SSE 4 6 2 3 1027.1 1027.1 0.2
18/04:00am 8.6 7.5 8.5 99 0.0 SE 4 6 2 3 1026.9 1026.9 0.2
18/03:30am 9.0 8.4 8.9 99 0.0 SSE 2 4 1 2 1026.8 1026.8 0.2
18/03:00am 9.4 8.4 8.9 97 0.2 SSE 4 4 2 2 1026.8 1026.8 0.2
18/02:30am 10.1 9.2 9.3 95 0.4 SSE 4 6 2 3 1026.8 1026.8 0.2
18/02:00am 10.5 9.6 9.4 93 0.5 SSE 4 7 2 4 1027.1 1027.1 0.2
18/01:30am 11.0 9.8 9.6 91 0.7 SSE 6 9 3 5 1027.1 1027.1 0.2
18/01:00am 11.3 10.1 9.6 89 0.9 SSE 6 9 3 5 1027.1 1027.1 0.2
18/12:30am 11.6 9.8 9.5 87 1.1 SSE 9 13 5 7 1026.9 1026.9 0.2
18/12:00am 11.8 10.0 9.4 85 1.2 SSE 9 17 5 9 1026.9 1026.9 0.2
 
Date/Time
WST
Temp
°C
App
Temp
°C
Dew
Point
°C
Rel
Hum
%
Delta-T
°C
Wind Press
QNH
hPa
Press
MSL
hPa
Rain since
9am
mm
Dir  Spd
km/h
Gust
km/h
Spd
kts
Gust
kts
17/11:30pm 12.2 10.0 9.2 82 1.5 SSE 11 19 6 10 1026.9 1026.9 0.2
17/11:00pm 12.3 10.1 9.3 82 1.5 SSE 11 20 6 11 1026.9 1026.9 0.2
17/10:30pm 12.6 10.4 9.4 81 1.6 SSE 11 17 6 9 1027.0 1027.0 0.2
17/10:00pm 12.9 10.4 9.7 81 1.6 S 13 19 7 10 1026.9 1026.9 0.2
17/09:30pm 13.3 10.0 9.5 78 1.9 S 17 28 9 15 1026.8 1026.8 0.2
17/09:00pm 13.5 10.6 9.7 78 1.9 S 15 22 8 12 1026.5 1026.5 0.2
17/08:30pm 13.6 11.5 9.6 77 2.0 S 11 19 6 10 1026.4 1026.4 0.2
17/08:00pm 13.6 11.1 9.6 77 2.0 S 13 20 7 11 1026.1 1026.1 0.2
17/07:30pm 13.8 10.8 9.3 74 2.3 S 15 22 8 12 1025.6 1025.6 0.2

Latest Capital City Observations: Canberra | Sydney | Melbourne | Brisbane | Adelaide | Perth | Hobart | Darwin

Other Formats:

Comma delimited format used in spreadsheet applications
http://www.bom.gov.au/fwo/IDW60901/IDW60901.94605.axf

JavaScript Object Notation format (JSON) in row-major order
http://www.bom.gov.au/fwo/IDW60901/IDW60901.94605.json